sensor_id;sensor_type;location;lat;lon;timestamp;temperature;humidity
13332;DHT22;6735;51.456;12.626;2023-04-01T00:00:51;9.70;88.40
13332;DHT22;6735;51.456;12.626;2023-04-01T00:03:17;9.70;88.50
13332;DHT22;6735;51.456;12.626;2023-04-01T00:05:43;9.70;88.50
13332;DHT22;6735;51.456;12.626;2023-04-01T00:08:08;9.70;88.60
13332;DHT22;6735;51.456;12.626;2023-04-01T00:10:34;9.70;88.60
13332;DHT22;6735;51.456;12.626;2023-04-01T00:12:59;9.70;88.60
13332;DHT22;6735;51.456;12.626;2023-04-01T00:15:25;9.70;88.60
13332;DHT22;6735;51.456;12.626;2023-04-01T00:17:51;9.80;88.50
13332;DHT22;6735;51.456;12.626;2023-04-01T00:20:16;9.70;88.50
13332;DHT22;6735;51.456;12.626;2023-04-01T00:22:42;9.80;88.60
13332;DHT22;6735;51.456;12.626;2023-04-01T00:25:08;9.70;88.50
13332;DHT22;6735;51.456;12.626;2023-04-01T00:27:33;9.70;88.60
13332;DHT22;6735;51.456;12.626;2023-04-01T00:29:59;9.70;88.60
13332;DHT22;6735;51.456;12.626;2023-04-01T00:32:24;9.70;88.70
13332;DHT22;6735;51.456;12.626;2023-04-01T00:34:51;9.70;88.70
13332;DHT22;6735;51.456;12.626;2023-04-01T00:37:17;9.70;88.70
13332;DHT22;6735;51.456;12.626;2023-04-01T00:39:43;9.70;88.60
13332;DHT22;6735;51.456;12.626;2023-04-01T00:42:10;9.70;88.70
13332;DHT22;6735;51.456;12.626;2023-04-01T00:44:37;9.70;88.80
13332;DHT22;6735;51.456;12.626;2023-04-01T00:47:03;9.70;88.70
13332;DHT22;6735;51.456;12.626;2023-04-01T00:49:32;9.70;88.70
13332;DHT22;6735;51.456;12.626;2023-04-01T00:52:00;9.70;88.70
13332;DHT22;6735;51.456;12.626;2023-04-01T00:54:27;9.70;88.70
13332;DHT22;6735;51.456;12.626;2023-04-01T00:57:02;9.70;88.70
13332;DHT22;6735;51.456;12.626;2023-04-01T00:59:39;9.70;88.60
13332;DHT22;6735;51.456;12.626;2023-04-01T01:02:08;9.70;88.60
13332;DHT22;6735;51.456;12.626;2023-04-01T01:04:36;9.70;88.60
13332;DHT22;6735;51.456;12.626;2023-04-01T01:09:59;9.60;88.60
13332;DHT22;6735;51.456;12.626;2023-04-01T01:12:36;9.60;88.70
13332;DHT22;6735;51.456;12.626;2023-04-01T01:15:28;9.60;88.70
13332;DHT22;6735;51.456;12.626;2023-04-01T01:17:58;9.60;88.70
13332;DHT22;6735;51.456;12.626;2023-04-01T01:21:28;9.60;88.70
13332;DHT22;6735;51.456;12.626;2023-04-01T01:29:47;9.60;88.80
13332;DHT22;6735;51.456;12.626;2023-04-01T01:32:34;9.60;88.80
13332;DHT22;6735;51.456;12.626;2023-04-01T01:38:10;9.50;88.80
13332;DHT22;6735;51.456;12.626;2023-04-01T01:40:39;9.60;88.90
13332;DHT22;6735;51.456;12.626;2023-04-01T01:43:09;9.50;88.90
13332;DHT22;6735;51.456;12.626;2023-04-01T01:45:38;9.60;88.90
13332;DHT22;6735;51.456;12.626;2023-04-01T01:48:07;9.50;88.90
13332;DHT22;6735;51.456;12.626;2023-04-01T01:50:33;9.50;89.00
13332;DHT22;6735;51.456;12.626;2023-04-01T01:53:11;9.50;89.10
13332;DHT22;6735;51.456;12.626;2023-04-01T01:55:39;9.50;89.10
13332;DHT22;6735;51.456;12.626;2023-04-01T01:58:19;9.50;89.00
13332;DHT22;6735;51.456;12.626;2023-04-01T02:00:50;9.50;89.00
13332;DHT22;6735;51.456;12.626;2023-04-01T02:03:17;9.50;89.10
13332;DHT22;6735;51.456;12.626;2023-04-01T02:05:46;9.50;89.00
13332;DHT22;6735;51.456;12.626;2023-04-01T02:08:21;9.50;89.10
13332;DHT22;6735;51.456;12.626;2023-04-01T02:11:00;9.50;89.10
13332;DHT22;6735;51.456;12.626;2023-04-01T02:13:37;9.60;89.00
13332;DHT22;6735;51.456;12.626;2023-04-01T02:16:08;9.50;89.10
13332;DHT22;6735;51.456;12.626;2023-04-01T02:18:38;9.50;89.10
13332;DHT22;6735;51.456;12.626;2023-04-01T02:21:04;9.60;89.10
13332;DHT22;6735;51.456;12.626;2023-04-01T02:23:33;9.50;89.10
13332;DHT22;6735;51.456;12.626;2023-04-01T02:25:59;9.60;89.10
13332;DHT22;6735;51.456;12.626;2023-04-01T02:28:26;9.60;89.10
13332;DHT22;6735;51.456;12.626;2023-04-01T02:30:53;9.60;89.10
13332;DHT22;6735;51.456;12.626;2023-04-01T02:33:19;9.60;89.00
13332;DHT22;6735;51.456;12.626;2023-04-01T02:35:45;9.60;89.00
13332;DHT22;6735;51.456;12.626;2023-04-01T02:38:11;9.60;89.00
13332;DHT22;6735;51.456;12.626;2023-04-01T02:40:44;9.60;89.10
13332;DHT22;6735;51.456;12.626;2023-04-01T02:43:10;9.60;89.00
13332;DHT22;6735;51.456;12.626;2023-04-01T02:45:36;9.60;89.00
13332;DHT22;6735;51.456;12.626;2023-04-01T02:48:02;9.60;88.90
13332;DHT22;6735;51.456;12.626;2023-04-01T02:50:27;9.60;89.00
13332;DHT22;6735;51.456;12.626;2023-04-01T02:52:53;9.60;89.00
13332;DHT22;6735;51.456;12.626;2023-04-01T02:55:18;9.60;89.00
13332;DHT22;6735;51.456;12.626;2023-04-01T02:57:44;9.60;89.00
13332;DHT22;6735;51.456;12.626;2023-04-01T03:00:10;9.60;89.10
13332;DHT22;6735;51.456;12.626;2023-04-01T03:02:37;9.60;89.00
13332;DHT22;6735;51.456;12.626;2023-04-01T03:05:04;9.60;89.00
13332;DHT22;6735;51.456;12.626;2023-04-01T03:07:29;9.60;89.00
13332;DHT22;6735;51.456;12.626;2023-04-01T03:09:55;9.60;89.00
13332;DHT22;6735;51.456;12.626;2023-04-01T03:12:20;9.60;89.10
13332;DHT22;6735;51.456;12.626;2023-04-01T03:14:46;9.60;89.10
13332;DHT22;6735;51.456;12.626;2023-04-01T03:17:11;9.60;89.10
13332;DHT22;6735;51.456;12.626;2023-04-01T03:19:36;9.60;89.10
13332;DHT22;6735;51.456;12.626;2023-04-01T03:22:02;9.60;89.00
13332;DHT22;6735;51.456;12.626;2023-04-01T03:24:27;9.70;89.00
13332;DHT22;6735;51.456;12.626;2023-04-01T03:26:53;9.60;89.00
13332;DHT22;6735;51.456;12.626;2023-04-01T03:29:18;9.60;89.00
13332;DHT22;6735;51.456;12.626;2023-04-01T03:31:44;9.60;89.00
13332;DHT22;6735;51.456;12.626;2023-04-01T03:34:09;9.60;89.00
13332;DHT22;6735;51.456;12.626;2023-04-01T03:36:35;9.60;89.00
13332;DHT22;6735;51.456;12.626;2023-04-01T03:39:01;9.60;88.90
13332;DHT22;6735;51.456;12.626;2023-04-01T03:41:26;9.60;88.90
13332;DHT22;6735;51.456;12.626;2023-04-01T03:43:53;9.60;88.90
13332;DHT22;6735;51.456;12.626;2023-04-01T03:46:19;9.50;88.90
13332;DHT22;6735;51.456;12.626;2023-04-01T03:48:45;9.60;88.90
13332;DHT22;6735;51.456;12.626;2023-04-01T03:51:11;9.60;89.00
13332;DHT22;6735;51.456;12.626;2023-04-01T03:53:36;9.60;88.90
13332;DHT22;6735;51.456;12.626;2023-04-01T03:56:06;9.50;88.90
13332;DHT22;6735;51.456;12.626;2023-04-01T03:58:31;9.60;88.90
13332;DHT22;6735;51.456;12.626;2023-04-01T04:00:57;9.60;88.90
13332;DHT22;6735;51.456;12.626;2023-04-01T04:03:22;9.50;88.90
13332;DHT22;6735;51.456;12.626;2023-04-01T04:05:49;9.50;88.80
13332;DHT22;6735;51.456;12.626;2023-04-01T04:08:15;9.50;88.80
13332;DHT22;6735;51.456;12.626;2023-04-01T04:10:40;9.50;88.80
13332;DHT22;6735;51.456;12.626;2023-04-01T04:13:06;9.50;88.80
13332;DHT22;6735;51.456;12.626;2023-04-01T04:15:32;9.50;88.80
13332;DHT22;6735;51.456;12.626;2023-04-01T04:17:57;9.50;88.80
13332;DHT22;6735;51.456;12.626;2023-04-01T04:20:23;9.40;88.80
13332;DHT22;6735;51.456;12.626;2023-04-01T04:22:48;9.50;88.80
13332;DHT22;6735;51.456;12.626;2023-04-01T04:25:14;9.50;88.80
13332;DHT22;6735;51.456;12.626;2023-04-01T04:27:39;9.40;88.80
13332;DHT22;6735;51.456;12.626;2023-04-01T04:30:08;9.40;88.90
13332;DHT22;6735;51.456;12.626;2023-04-01T04:32:34;9.40;88.90
13332;DHT22;6735;51.456;12.626;2023-04-01T04:34:59;9.40;88.80
13332;DHT22;6735;51.456;12.626;2023-04-01T04:37:25;9.40;88.90
13332;DHT22;6735;51.456;12.626;2023-04-01T04:39:51;9.40;88.90
13332;DHT22;6735;51.456;12.626;2023-04-01T04:42:16;9.40;88.90
13332;DHT22;6735;51.456;12.626;2023-04-01T04:44:42;9.40;88.90
13332;DHT22;6735;51.456;12.626;2023-04-01T04:47:07;9.40;88.90
13332;DHT22;6735;51.456;12.626;2023-04-01T04:49:33;9.40;88.90
13332;DHT22;6735;51.456;12.626;2023-04-01T04:51:58;9.40;88.90
13332;DHT22;6735;51.456;12.626;2023-04-01T04:54:24;9.40;88.90
13332;DHT22;6735;51.456;12.626;2023-04-01T04:56:51;9.50;88.90
13332;DHT22;6735;51.456;12.626;2023-04-01T04:59:17;9.40;88.90
13332;DHT22;6735;51.456;12.626;2023-04-01T05:01:43;9.50;88.90
13332;DHT22;6735;51.456;12.626;2023-04-01T05:04:08;9.40;88.90
13332;DHT22;6735;51.456;12.626;2023-04-01T05:06:33;9.50;89.00
13332;DHT22;6735;51.456;12.626;2023-04-01T05:08:59;9.50;88.90
13332;DHT22;6735;51.456;12.626;2023-04-01T05:11:25;9.50;88.90
13332;DHT22;6735;51.456;12.626;2023-04-01T05:13:51;9.50;89.00
13332;DHT22;6735;51.456;12.626;2023-04-01T05:16:19;9.50;88.90
13332;DHT22;6735;51.456;12.626;2023-04-01T05:18:45;9.50;88.90
13332;DHT22;6735;51.456;12.626;2023-04-01T05:21:12;9.60;88.90
13332;DHT22;6735;51.456;12.626;2023-04-01T05:23:39;9.50;88.90
13332;DHT22;6735;51.456;12.626;2023-04-01T05:26:06;9.60;88.90
13332;DHT22;6735;51.456;12.626;2023-04-01T05:28:32;9.50;88.90
13332;DHT22;6735;51.456;12.626;2023-04-01T05:31:02;9.60;89.00
13332;DHT22;6735;51.456;12.626;2023-04-01T05:33:29;9.60;88.90
13332;DHT22;6735;51.456;12.626;2023-04-01T05:35:55;9.60;88.90
13332;DHT22;6735;51.456;12.626;2023-04-01T05:38:20;9.60;88.90
13332;DHT22;6735;51.456;12.626;2023-04-01T05:40:46;9.60;88.80
13332;DHT22;6735;51.456;12.626;2023-04-01T05:43:11;9.60;88.90
13332;DHT22;6735;51.456;12.626;2023-04-01T05:45:37;9.60;88.90
13332;DHT22;6735;51.456;12.626;2023-04-01T05:48:03;9.60;88.90
13332;DHT22;6735;51.456;12.626;2023-04-01T05:50:28;9.70;88.90
13332;DHT22;6735;51.456;12.626;2023-04-01T05:52:54;9.70;88.70
13332;DHT22;6735;51.456;12.626;2023-04-01T05:55:20;9.70;88.80
13332;DHT22;6735;51.456;12.626;2023-04-01T05:57:46;9.80;88.80
13332;DHT22;6735;51.456;12.626;2023-04-01T06:00:13;9.90;88.80
13332;DHT22;6735;51.456;12.626;2023-04-01T06:02:39;10.00;88.70
13332;DHT22;6735;51.456;12.626;2023-04-01T06:05:19;10.10;88.60
13332;DHT22;6735;51.456;12.626;2023-04-01T06:07:45;10.10;88.50
13332;DHT22;6735;51.456;12.626;2023-04-01T06:10:17;10.20;88.40
13332;DHT22;6735;51.456;12.626;2023-04-01T06:15:32;10.30;88.20
13332;DHT22;6735;51.456;12.626;2023-04-01T06:18:37;10.40;88.10
13332;DHT22;6735;51.456;12.626;2023-04-01T06:21:37;10.40;87.80
13332;DHT22;6735;51.456;12.626;2023-04-01T06:24:17;10.50;87.90
13332;DHT22;6735;51.456;12.626;2023-04-01T06:27:11;10.50;87.70
13332;DHT22;6735;51.456;12.626;2023-04-01T06:40:48;10.60;87.50
13332;DHT22;6735;51.456;12.626;2023-04-01T06:49:17;10.70;87.20
13332;DHT22;6735;51.456;12.626;2023-04-01T06:52:02;10.70;87.30
13332;DHT22;6735;51.456;12.626;2023-04-01T06:54:40;10.90;87.20
13332;DHT22;6735;51.456;12.626;2023-04-01T06:57:30;10.90;87.00
13332;DHT22;6735;51.456;12.626;2023-04-01T06:59:59;10.90;86.90
13332;DHT22;6735;51.456;12.626;2023-04-01T07:02:48;11.00;86.70
13332;DHT22;6735;51.456;12.626;2023-04-01T07:05:19;11.10;86.70
13332;DHT22;6735;51.456;12.626;2023-04-01T07:07:48;11.20;86.20
13332;DHT22;6735;51.456;12.626;2023-04-01T07:10:22;11.20;86.10
13332;DHT22;6735;51.456;12.626;2023-04-01T07:13:00;11.20;85.90
13332;DHT22;6735;51.456;12.626;2023-04-01T07:15:36;11.40;86.00
13332;DHT22;6735;51.456;12.626;2023-04-01T07:18:13;11.50;86.00
13332;DHT22;6735;51.456;12.626;2023-04-01T07:20:42;11.60;85.70
13332;DHT22;6735;51.456;12.626;2023-04-01T07:23:16;11.60;85.20
13332;DHT22;6735;51.456;12.626;2023-04-01T07:25:48;11.70;85.00
13332;DHT22;6735;51.456;12.626;2023-04-01T07:28:16;11.70;84.60
13332;DHT22;6735;51.456;12.626;2023-04-01T07:33:33;11.70;84.10
13332;DHT22;6735;51.456;12.626;2023-04-01T07:36:06;11.70;84.40
13332;DHT22;6735;51.456;12.626;2023-04-01T07:44:30;12.10;84.20
13332;DHT22;6735;51.456;12.626;2023-04-01T07:50:11;12.10;83.40
13332;DHT22;6735;51.456;12.626;2023-04-01T07:55:24;12.50;83.10
13332;DHT22;6735;51.456;12.626;2023-04-01T07:58:27;12.60;82.90
13332;DHT22;6735;51.456;12.626;2023-04-01T08:00:56;12.60;82.30
13332;DHT22;6735;51.456;12.626;2023-04-01T08:12:48;12.30;81.50
13332;DHT22;6735;51.456;12.626;2023-04-01T08:15:43;12.20;81.80
13332;DHT22;6735;51.456;12.626;2023-04-01T08:21:25;12.20;82.00
13332;DHT22;6735;51.456;12.626;2023-04-01T08:23:56;12.20;81.80
13332;DHT22;6735;51.456;12.626;2023-04-01T08:29:02;12.20;81.30
13332;DHT22;6735;51.456;12.626;2023-04-01T08:31:48;12.20;80.90
13332;DHT22;6735;51.456;12.626;2023-04-01T08:34:23;12.20;81.20
13332;DHT22;6735;51.456;12.626;2023-04-01T08:36:53;12.30;81.20
13332;DHT22;6735;51.456;12.626;2023-04-01T08:39:29;12.30;81.00
13332;DHT22;6735;51.456;12.626;2023-04-01T08:42:11;12.30;80.80
13332;DHT22;6735;51.456;12.626;2023-04-01T08:52:58;12.70;80.10
13332;DHT22;6735;51.456;12.626;2023-04-01T08:55:51;12.80;80.40
13332;DHT22;6735;51.456;12.626;2023-04-01T08:58:34;13.00;79.30
13332;DHT22;6735;51.456;12.626;2023-04-01T09:01:37;13.10;80.20
13332;DHT22;6735;51.456;12.626;2023-04-01T09:04:25;13.30;78.60
13332;DHT22;6735;51.456;12.626;2023-04-01T09:07:08;13.40;78.70
13332;DHT22;6735;51.456;12.626;2023-04-01T09:34:57;14.60;74.40
13332;DHT22;6735;51.456;12.626;2023-04-01T09:37:34;14.60;72.80
13332;DHT22;6735;51.456;12.626;2023-04-01T09:40:18;14.70;74.30
13332;DHT22;6735;51.456;12.626;2023-04-01T09:42:56;15.10;73.40
13332;DHT22;6735;51.456;12.626;2023-04-01T09:45:40;15.20;71.10
13332;DHT22;6735;51.456;12.626;2023-04-01T09:51:22;15.70;69.30
13332;DHT22;6735;51.456;12.626;2023-04-01T09:54:04;15.70;71.10
13332;DHT22;6735;51.456;12.626;2023-04-01T09:57:02;15.80;69.70
13332;DHT22;6735;51.456;12.626;2023-04-01T09:59:43;15.90;68.50
13332;DHT22;6735;51.456;12.626;2023-04-01T10:02:41;16.00;70.20
13332;DHT22;6735;51.456;12.626;2023-04-01T10:08:24;16.10;69.60
13332;DHT22;6735;51.456;12.626;2023-04-01T10:14:30;16.10;66.70
13332;DHT22;6735;51.456;12.626;2023-04-01T10:22:24;15.70;67.30
13332;DHT22;6735;51.456;12.626;2023-04-01T10:25:05;15.70;67.80
13332;DHT22;6735;51.456;12.626;2023-04-01T10:27:49;15.80;66.30
13332;DHT22;6735;51.456;12.626;2023-04-01T10:33:56;15.90;66.20
13332;DHT22;6735;51.456;12.626;2023-04-01T10:36:33;15.80;65.60
13332;DHT22;6735;51.456;12.626;2023-04-01T10:39:29;15.80;66.90
13332;DHT22;6735;51.456;12.626;2023-04-01T10:42:43;16.00;66.30
13332;DHT22;6735;51.456;12.626;2023-04-01T10:45:57;16.00;65.60
13332;DHT22;6735;51.456;12.626;2023-04-01T10:48:56;15.80;65.90
13332;DHT22;6735;51.456;12.626;2023-04-01T10:52:10;15.70;66.10
13332;DHT22;6735;51.456;12.626;2023-04-01T10:55:14;15.40;66.50
13332;DHT22;6735;51.456;12.626;2023-04-01T11:01:13;15.30;67.80
13332;DHT22;6735;51.456;12.626;2023-04-01T11:19:42;14.40;71.50
13332;DHT22;6735;51.456;12.626;2023-04-01T11:22:42;14.40;72.00
13332;DHT22;6735;51.456;12.626;2023-04-01T11:34:37;14.40;73.40
13332;DHT22;6735;51.456;12.626;2023-04-01T11:43:01;14.40;73.60
13332;DHT22;6735;51.456;12.626;2023-04-01T11:45:36;14.30;73.50
13332;DHT22;6735;51.456;12.626;2023-04-01T11:48:19;14.30;73.50
13332;DHT22;6735;51.456;12.626;2023-04-01T11:51:03;14.20;73.70
13332;DHT22;6735;51.456;12.626;2023-04-01T11:56:49;14.20;73.70
13332;DHT22;6735;51.456;12.626;2023-04-01T12:05:33;13.90;72.80
13332;DHT22;6735;51.456;12.626;2023-04-01T12:08:10;13.90;72.90
13332;DHT22;6735;51.456;12.626;2023-04-01T12:19:04;14.20;72.80
13332;DHT22;6735;51.456;12.626;2023-04-01T12:21:38;14.30;72.80
13332;DHT22;6735;51.456;12.626;2023-04-01T12:24:29;14.20;73.20
13332;DHT22;6735;51.456;12.626;2023-04-01T12:27:19;14.20;73.30
13332;DHT22;6735;51.456;12.626;2023-04-01T12:30:26;14.00;73.50
13332;DHT22;6735;51.456;12.626;2023-04-01T12:33:18;14.00;74.60
13332;DHT22;6735;51.456;12.626;2023-04-01T12:41:44;14.00;74.70
13332;DHT22;6735;51.456;12.626;2023-04-01T12:44:22;13.90;75.10
13332;DHT22;6735;51.456;12.626;2023-04-01T12:47:22;14.00;75.50
13332;DHT22;6735;51.456;12.626;2023-04-01T12:50:26;13.90;75.80
13332;DHT22;6735;51.456;12.626;2023-04-01T12:53:12;13.80;75.50
13332;DHT22;6735;51.456;12.626;2023-04-01T12:55:41;13.70;75.90
13332;DHT22;6735;51.456;12.626;2023-04-01T12:58:31;13.60;76.70
13332;DHT22;6735;51.456;12.626;2023-04-01T13:04:21;13.60;77.00
13332;DHT22;6735;51.456;12.626;2023-04-01T13:12:56;13.70;77.40
13332;DHT22;6735;51.456;12.626;2023-04-01T13:15:40;13.80;76.80
13332;DHT22;6735;51.456;12.626;2023-04-01T13:29:15;14.20;74.60
13332;DHT22;6735;51.456;12.626;2023-04-01T13:31:49;14.20;74.60
13332;DHT22;6735;51.456;12.626;2023-04-01T13:34:34;14.30;74.60
13332;DHT22;6735;51.456;12.626;2023-04-01T13:39:49;14.30;74.60
13332;DHT22;6735;51.456;12.626;2023-04-01T13:56:30;14.60;74.10
13332;DHT22;6735;51.456;12.626;2023-04-01T14:07:32;15.00;72.00
13332;DHT22;6735;51.456;12.626;2023-04-01T14:12:50;14.90;71.90
13332;DHT22;6735;51.456;12.626;2023-04-01T14:15:50;14.80;72.40
13332;DHT22;6735;51.456;12.626;2023-04-01T14:18:32;14.80;71.90
13332;DHT22;6735;51.456;12.626;2023-04-01T14:24:42;14.70;71.70
13332;DHT22;6735;51.456;12.626;2023-04-01T14:27:39;14.70;70.50
13332;DHT22;6735;51.456;12.626;2023-04-01T14:33:19;14.60;70.70
13332;DHT22;6735;51.456;12.626;2023-04-01T14:38:50;14.40;71.10
13332;DHT22;6735;51.456;12.626;2023-04-01T14:44:44;14.50;71.20
13332;DHT22;6735;51.456;12.626;2023-04-01T14:47:32;14.40;71.60
13332;DHT22;6735;51.456;12.626;2023-04-01T14:50:12;14.30;71.60
13332;DHT22;6735;51.456;12.626;2023-04-01T14:52:44;14.20;71.60
13332;DHT22;6735;51.456;12.626;2023-04-01T14:55:28;14.10;72.10
13332;DHT22;6735;51.456;12.626;2023-04-01T14:58:13;14.00;72.50
13332;DHT22;6735;51.456;12.626;2023-04-01T15:00:53;14.10;72.40
13332;DHT22;6735;51.456;12.626;2023-04-01T15:03:33;13.90;72.30
13332;DHT22;6735;51.456;12.626;2023-04-01T15:08:58;13.80;73.20
13332;DHT22;6735;51.456;12.626;2023-04-01T15:14:35;13.70;73.70
13332;DHT22;6735;51.456;12.626;2023-04-01T15:19:58;13.70;74.00
13332;DHT22;6735;51.456;12.626;2023-04-01T15:22:47;13.60;73.80
13332;DHT22;6735;51.456;12.626;2023-04-01T15:28:43;13.50;74.40
13332;DHT22;6735;51.456;12.626;2023-04-01T15:31:37;13.60;74.60
13332;DHT22;6735;51.456;12.626;2023-04-01T15:37:03;13.50;74.60
13332;DHT22;6735;51.456;12.626;2023-04-01T15:42:28;13.70;74.80
13332;DHT22;6735;51.456;12.626;2023-04-01T15:45:29;13.70;74.50
13332;DHT22;6735;51.456;12.626;2023-04-01T15:48:23;13.70;74.70
13332;DHT22;6735;51.456;12.626;2023-04-01T15:53:55;13.70;75.00
13332;DHT22;6735;51.456;12.626;2023-04-01T15:56:28;13.60;74.90
13332;DHT22;6735;51.456;12.626;2023-04-01T15:59:04;13.60;75.20
13332;DHT22;6735;51.456;12.626;2023-04-01T16:01:51;13.60;75.30
13332;DHT22;6735;51.456;12.626;2023-04-01T16:04:40;13.70;75.30
13332;DHT22;6735;51.456;12.626;2023-04-01T16:07:26;13.70;75.40
13332;DHT22;6735;51.456;12.626;2023-04-01T16:10:04;13.60;75.60
13332;DHT22;6735;51.456;12.626;2023-04-01T16:12:44;13.60;76.00
13332;DHT22;6735;51.456;12.626;2023-04-01T16:21:01;13.50;76.90
13332;DHT22;6735;51.456;12.626;2023-04-01T16:23:48;13.50;77.30
13332;DHT22;6735;51.456;12.626;2023-04-01T16:26:34;13.40;77.20
13332;DHT22;6735;51.456;12.626;2023-04-01T16:29:22;13.40;77.10
13332;DHT22;6735;51.456;12.626;2023-04-01T16:32:51;13.40;77.20
13332;DHT22;6735;51.456;12.626;2023-04-01T16:37:54;13.30;77.60
13332;DHT22;6735;51.456;12.626;2023-04-01T16:40:41;13.30;77.70
13332;DHT22;6735;51.456;12.626;2023-04-01T16:43:27;13.20;77.80
13332;DHT22;6735;51.456;12.626;2023-04-01T16:46:20;13.20;77.90
13332;DHT22;6735;51.456;12.626;2023-04-01T16:59:45;12.90;79.20
13332;DHT22;6735;51.456;12.626;2023-04-01T17:02:14;12.80;79.50
13332;DHT22;6735;51.456;12.626;2023-04-01T17:04:47;12.80;80.10
13332;DHT22;6735;51.456;12.626;2023-04-01T17:07:25;12.80;80.80
13332;DHT22;6735;51.456;12.626;2023-04-01T17:13:15;12.80;81.30
13332;DHT22;6735;51.456;12.626;2023-04-01T17:21:57;12.70;81.90
13332;DHT22;6735;51.456;12.626;2023-04-01T17:24:50;12.70;81.80
13332;DHT22;6735;51.456;12.626;2023-04-01T17:33:10;12.60;82.00
13332;DHT22;6735;51.456;12.626;2023-04-01T17:35:49;12.60;82.10
13332;DHT22;6735;51.456;12.626;2023-04-01T17:38:51;12.50;82.20
13332;DHT22;6735;51.456;12.626;2023-04-01T17:41:48;12.50;82.20
13332;DHT22;6735;51.456;12.626;2023-04-01T17:44:28;12.40;82.10
13332;DHT22;6735;51.456;12.626;2023-04-01T17:47:13;12.40;82.10
13332;DHT22;6735;51.456;12.626;2023-04-01T17:53:05;12.40;82.40
13332;DHT22;6735;51.456;12.626;2023-04-01T17:55:59;12.30;82.60
13332;DHT22;6735;51.456;12.626;2023-04-01T17:58:45;12.20;82.70
13332;DHT22;6735;51.456;12.626;2023-04-01T18:04:28;12.20;83.00
13332;DHT22;6735;51.456;12.626;2023-04-01T18:07:24;12.20;83.00
13332;DHT22;6735;51.456;12.626;2023-04-01T18:15:53;12.10;83.40
13332;DHT22;6735;51.456;12.626;2023-04-01T18:21:23;11.90;83.30
13332;DHT22;6735;51.456;12.626;2023-04-01T18:23:58;11.60;84.00
13332;DHT22;6735;51.456;12.626;2023-04-01T18:26:35;11.40;84.40
13332;DHT22;6735;51.456;12.626;2023-04-01T18:29:34;11.30;84.60
13332;DHT22;6735;51.456;12.626;2023-04-01T18:32:17;11.20;84.70
13332;DHT22;6735;51.456;12.626;2023-04-01T18:35:00;11.10;85.00
13332;DHT22;6735;51.456;12.626;2023-04-01T18:37:38;10.90;85.20
13332;DHT22;6735;51.456;12.626;2023-04-01T18:40:19;10.90;85.50
13332;DHT22;6735;51.456;12.626;2023-04-01T18:45:45;10.90;85.50
13332;DHT22;6735;51.456;12.626;2023-04-01T18:54:40;10.70;85.40
13332;DHT22;6735;51.456;12.626;2023-04-01T18:57:03;10.50;86.00
13332;DHT22;6735;51.456;12.626;2023-04-01T18:59:39;10.40;86.20
13332;DHT22;6735;51.456;12.626;2023-04-01T19:02:31;10.40;86.00
13332;DHT22;6735;51.456;12.626;2023-04-01T19:07:49;10.10;86.60
13332;DHT22;6735;51.456;12.626;2023-04-01T19:13:11;10.20;86.30
13332;DHT22;6735;51.456;12.626;2023-04-01T19:15:48;10.20;86.40
13332;DHT22;6735;51.456;12.626;2023-04-01T19:20:57;10.00;86.90
13332;DHT22;6735;51.456;12.626;2023-04-01T19:23:39;9.90;86.80
13332;DHT22;6735;51.456;12.626;2023-04-01T19:26:27;9.90;86.90
13332;DHT22;6735;51.456;12.626;2023-04-01T19:31:56;9.70;86.90
13332;DHT22;6735;51.456;12.626;2023-04-01T19:36:58;9.70;87.00
13332;DHT22;6735;51.456;12.626;2023-04-01T19:39:51;9.70;86.80
13332;DHT22;6735;51.456;12.626;2023-04-01T19:45:20;9.60;87.00
13332;DHT22;6735;51.456;12.626;2023-04-01T19:48:16;9.60;86.90
13332;DHT22;6735;51.456;12.626;2023-04-01T19:51:09;9.40;86.80
13332;DHT22;6735;51.456;12.626;2023-04-01T19:59:34;9.10;87.20
13332;DHT22;6735;51.456;12.626;2023-04-01T20:04:56;9.10;87.70
13332;DHT22;6735;51.456;12.626;2023-04-01T20:07:37;9.10;87.30
13332;DHT22;6735;51.456;12.626;2023-04-01T20:10:16;9.10;87.40
13332;DHT22;6735;51.456;12.626;2023-04-01T20:12:52;8.90;87.10
13332;DHT22;6735;51.456;12.626;2023-04-01T20:15:37;8.90;87.80
13332;DHT22;6735;51.456;12.626;2023-04-01T20:18:23;8.90;87.90
13332;DHT22;6735;51.456;12.626;2023-04-01T20:20:57;8.90;87.90
13332;DHT22;6735;51.456;12.626;2023-04-01T20:23:43;8.90;87.80
13332;DHT22;6735;51.456;12.626;2023-04-01T20:26:14;8.90;87.80
13332;DHT22;6735;51.456;12.626;2023-04-01T20:29:02;8.90;87.80
13332;DHT22;6735;51.456;12.626;2023-04-01T20:31:41;8.80;87.60
13332;DHT22;6735;51.456;12.626;2023-04-01T20:34:22;8.70;87.90
13332;DHT22;6735;51.456;12.626;2023-04-01T20:37:15;8.60;87.80
13332;DHT22;6735;51.456;12.626;2023-04-01T20:40:17;8.60;87.80
13332;DHT22;6735;51.456;12.626;2023-04-01T20:42:54;8.60;87.60
13332;DHT22;6735;51.456;12.626;2023-04-01T20:45:46;8.50;88.10
13332;DHT22;6735;51.456;12.626;2023-04-01T20:48:33;8.50;88.00
13332;DHT22;6735;51.456;12.626;2023-04-01T20:53:35;8.40;88.00
13332;DHT22;6735;51.456;12.626;2023-04-01T20:58:58;8.20;87.70
13332;DHT22;6735;51.456;12.626;2023-04-01T21:10:06;8.10;87.20
13332;DHT22;6735;51.456;12.626;2023-04-01T21:23:34;7.70;88.20
13332;DHT22;6735;51.456;12.626;2023-04-01T21:31:36;7.50;87.90
13332;DHT22;6735;51.456;12.626;2023-04-01T21:36:40;7.40;88.20
13332;DHT22;6735;51.456;12.626;2023-04-01T21:39:41;7.40;88.20
13332;DHT22;6735;51.456;12.626;2023-04-01T21:42:38;7.40;88.10
13332;DHT22;6735;51.456;12.626;2023-04-01T21:45:19;7.40;88.20
13332;DHT22;6735;51.456;12.626;2023-04-01T21:48:15;7.40;88.30
13332;DHT22;6735;51.456;12.626;2023-04-01T21:51:11;7.30;88.10
13332;DHT22;6735;51.456;12.626;2023-04-01T22:05:16;6.70;88.10
13332;DHT22;6735;51.456;12.626;2023-04-01T22:16:40;6.60;88.10
13332;DHT22;6735;51.456;12.626;2023-04-01T22:19:35;6.60;88.00
13332;DHT22;6735;51.456;12.626;2023-04-01T22:22:12;6.60;88.00
13332;DHT22;6735;51.456;12.626;2023-04-01T22:30:13;6.50;88.50
13332;DHT22;6735;51.456;12.626;2023-04-01T22:33:01;6.50;88.40
13332;DHT22;6735;51.456;12.626;2023-04-01T22:35:44;6.40;88.30
13332;DHT22;6735;51.456;12.626;2023-04-01T22:38:37;6.30;88.30
13332;DHT22;6735;51.456;12.626;2023-04-01T22:41:42;6.30;88.30
13332;DHT22;6735;51.456;12.626;2023-04-01T22:44:34;6.20;88.50
13332;DHT22;6735;51.456;12.626;2023-04-01T22:47:30;6.30;88.60
13332;DHT22;6735;51.456;12.626;2023-04-01T22:50:14;6.30;88.40
13332;DHT22;6735;51.456;12.626;2023-04-01T22:52:44;6.20;88.00
13332;DHT22;6735;51.456;12.626;2023-04-01T22:55:17;6.10;87.90
13332;DHT22;6735;51.456;12.626;2023-04-01T22:58:11;6.20;88.20
13332;DHT22;6735;51.456;12.626;2023-04-01T23:00:58;6.20;88.00
13332;DHT22;6735;51.456;12.626;2023-04-01T23:03:33;6.30;88.10
13332;DHT22;6735;51.456;12.626;2023-04-01T23:06:01;6.20;87.90
13332;DHT22;6735;51.456;12.626;2023-04-01T23:09:38;6.20;88.10
13332;DHT22;6735;51.456;12.626;2023-04-01T23:11:35;6.20;88.00
13332;DHT22;6735;51.456;12.626;2023-04-01T23:17:07;6.10;88.00